Time;durP1;ratioP1;P1;durP2;ratioP2;P2;SDS_P1;SDS_P2;PMS_P1;PMS_P2;Temp;Humidity;BMP_temperature;BMP_pressure;BME280_temperature;BME280_humidity;BME280_pressure;Samples;Min_cycle;Max_cycle;Signal;HPM_P1;HPM_P2
2021/10/04 00:01:37;;;;;;;12.97;11.70;;;17.80;99.90;;;;;;5050267;28;20459;-78
2021/10/04 00:04:06;;;;;;;14.33;12.30;;;17.80;99.90;;;;;;5049436;28;20484;-78
2021/10/04 00:06:32;;;;;;;14.10;12.30;;;17.70;99.90;;;;;;5050050;28;20480;-78
2021/10/04 00:08:59;;;;;;;16.90;13.13;;;17.80;99.90;;;;;;5049536;28;20537;-78
2021/10/04 00:11:27;;;;;;;18.60;13.80;;;17.70;99.90;;;;;;5049247;28;20487;-78
2021/10/04 00:13:53;;;;;;;13.90;12.40;;;17.80;99.90;;;;;;5049488;28;20544;-76
2021/10/04 00:16:20;;;;;;;15.20;13.70;;;17.70;99.90;;;;;;5050017;28;20484;-76
2021/10/04 00:18:46;;;;;;;15.37;13.87;;;17.70;99.90;;;;;;5050114;28;20543;-76
2021/10/04 00:21:13;;;;;;;13.60;12.20;;;17.70;99.90;;;;;;5050352;28;20488;-76
2021/10/04 00:23:39;;;;;;;13.33;11.83;;;17.70;99.90;;;;;;5050199;28;20995;-76
2021/10/04 00:26:08;;;;;;;15.33;13.63;;;17.70;99.90;;;;;;5049248;28;20544;-76
2021/10/04 00:28:36;;;;;;;15.80;13.03;;;17.70;99.90;;;;;;5049236;28;20566;-78
2021/10/04 00:31:03;;;;;;;14.47;13.03;;;17.70;99.90;;;;;;5048720;28;20895;-77
2021/10/04 00:33:29;;;;;;;14.10;12.70;;;17.70;99.90;;;;;;5048693;28;20741;-77
2021/10/04 00:35:56;;;;;;;13.97;12.50;;;17.60;99.90;;;;;;5047843;28;20911;-77
2021/10/04 00:38:23;;;;;;;17.77;13.10;;;17.60;99.90;;;;;;5049854;28;20460;-77
2021/10/04 00:40:50;;;;;;;15.83;14.30;;;17.60;99.90;;;;;;5049586;28;20490;-78
2021/10/04 00:43:17;;;;;;;14.40;12.63;;;17.50;99.90;;;;;;5044256;28;20960;-77
2021/10/04 00:45:44;;;;;;;17.13;12.77;;;17.60;99.90;;;;;;5049437;28;20452;-77
2021/10/04 00:48:11;;;;;;;18.30;13.57;;;17.60;99.90;;;;;;5049222;28;21050;-78
2021/10/04 00:50:38;;;;;;;15.00;13.10;;;17.60;99.90;;;;;;5048460;28;21075;-77
2021/10/04 00:53:04;;;;;;;15.33;13.40;;;17.60;99.90;;;;;;5049089;28;20471;-77
2021/10/04 00:55:31;;;;;;;17.00;12.93;;;17.60;99.90;;;;;;5049526;28;20524;-77
2021/10/04 00:57:59;;;;;;;14.53;13.00;;;17.60;99.90;;;;;;5048491;28;20536;-77
2021/10/04 01:00:28;;;;;;;12.97;11.70;;;17.50;99.90;;;;;;5049382;28;20504;-78
2021/10/04 01:02:58;;;;;;;13.80;12.47;;;17.60;99.90;;;;;;5048689;28;20492;-77
2021/10/04 01:05:25;;;;;;;15.37;13.90;;;17.50;99.90;;;;;;5050144;28;20502;-78
2021/10/04 01:07:51;;;;;;;14.60;13.10;;;17.50;99.90;;;;;;5048327;28;20570;-78
2021/10/04 01:10:18;;;;;;;14.73;13.33;;;17.50;99.90;;;;;;5048822;28;20452;-78
2021/10/04 01:12:49;;;;;;;13.13;11.83;;;17.50;99.90;;;;;;5048625;28;20539;-77
2021/10/04 01:15:18;;;;;;;15.63;12.70;;;17.50;99.90;;;;;;5049151;28;20451;-77
2021/10/04 01:17:45;;;;;;;14.93;13.37;;;17.50;99.90;;;;;;5048335;28;21053;-77
2021/10/04 01:20:14;;;;;;;15.40;13.90;;;17.50;99.90;;;;;;5048578;28;20483;-78
2021/10/04 01:22:42;;;;;;;20.37;14.00;;;17.50;99.90;;;;;;5048167;28;20487;-78
2021/10/04 01:25:10;;;;;;;15.30;13.10;;;17.40;99.90;;;;;;5047816;28;20453;-78
2021/10/04 01:27:37;;;;;;;13.53;12.03;;;17.40;99.90;;;;;;5047757;28;20469;-79
2021/10/04 01:30:05;;;;;;;12.63;11.43;;;17.40;99.90;;;;;;5048312;28;20448;-78
2021/10/04 01:32:31;;;;;;;12.10;10.80;;;17.40;99.90;;;;;;5048941;28;20488;-77
2021/10/04 01:34:58;;;;;;;11.63;9.57;;;17.50;99.90;;;;;;5047893;28;20487;-77
2021/10/04 01:37:27;;;;;;;11.93;9.40;;;17.50;99.90;;;;;;5048011;28;20966;-78
2021/10/04 01:39:53;;;;;;;10.03;8.97;;;17.50;99.90;;;;;;5047840;28;20532;-78
2021/10/04 01:42:20;;;;;;;12.17;9.13;;;17.50;99.90;;;;;;5048117;28;20500;-77
2021/10/04 01:44:49;;;;;;;11.77;9.60;;;17.50;99.90;;;;;;5048073;28;20548;-77
2021/10/04 01:47:16;;;;;;;10.83;8.73;;;17.50;99.90;;;;;;5047830;28;20476;-77
2021/10/04 01:49:44;;;;;;;9.20;8.07;;;17.60;99.90;;;;;;5048540;28;20587;-77
2021/10/04 01:52:11;;;;;;;9.90;8.00;;;17.60;99.90;;;;;;5046189;28;20457;-77
2021/10/04 01:54:39;;;;;;;9.03;8.23;;;17.60;99.90;;;;;;5047050;28;20452;-77
2021/10/04 01:57:06;;;;;;;8.30;7.00;;;17.50;99.90;;;;;;5047064;28;20449;-77
2021/10/04 01:59:33;;;;;;;8.40;7.60;;;17.50;99.90;;;;;;5047617;28;20468;-77
2021/10/04 02:02:00;;;;;;;7.50;6.80;;;17.50;99.90;;;;;;5047340;28;20581;-77
2021/10/04 02:04:26;;;;;;;7.00;6.30;;;17.60;99.90;;;;;;5045697;28;20519;-76
2021/10/04 02:06:53;;;;;;;6.30;5.80;;;17.50;99.90;;;;;;5047135;28;20480;-76
2021/10/04 02:09:20;;;;;;;6.63;6.03;;;17.50;99.90;;;;;;5046909;28;20989;-76
2021/10/04 02:11:51;;;;;;;5.63;5.10;;;17.50;99.90;;;;;;5048452;28;20597;-76
2021/10/04 02:14:18;;;;;;;5.60;5.10;;;17.60;99.90;;;;;;5048163;28;20567;-76
2021/10/04 02:16:45;;;;;;;4.30;4.03;;;17.50;99.90;;;;;;5047469;28;20487;-76
2021/10/04 02:19:13;;;;;;;4.70;4.40;;;17.50;99.90;;;;;;5047485;28;20488;-76
2021/10/04 02:21:39;;;;;;;5.23;4.73;;;17.50;99.90;;;;;;5046909;28;20455;-78
2021/10/04 02:24:06;;;;;;;5.47;4.70;;;17.50;99.90;;;;;;5045924;28;20481;-77
2021/10/04 02:26:33;;;;;;;5.40;3.40;;;17.40;99.90;;;;;;5047716;28;20527;-76
2021/10/04 02:29:01;;;;;;;4.13;3.73;;;17.40;99.90;;;;;;5052477;28;20579;-77
2021/10/04 02:31:27;;;;;;;3.77;3.47;;;17.40;99.90;;;;;;5047308;28;20999;-77
2021/10/04 02:33:54;;;;;;;2.63;2.53;;;17.40;99.90;;;;;;5046093;28;20583;-77
2021/10/04 02:36:23;;;;;;;3.00;2.70;;;17.40;99.90;;;;;;5047874;28;20543;-77
2021/10/04 02:38:50;;;;;;;2.67;2.47;;;17.30;99.90;;;;;;5047909;28;20449;-77
2021/10/04 02:41:17;;;;;;;5.00;2.67;;;17.40;99.90;;;;;;5047625;28;20568;-76
2021/10/04 02:43:44;;;;;;;2.70;2.50;;;17.40;99.90;;;;;;5046315;28;20488;-76
2021/10/04 02:46:12;;;;;;;2.80;2.60;;;17.30;99.90;;;;;;5047866;28;20540;-76
2021/10/04 02:48:38;;;;;;;2.73;2.53;;;17.30;99.90;;;;;;5040394;28;20580;-76
2021/10/04 02:51:05;;;;;;;2.67;2.47;;;17.20;99.90;;;;;;5047423;28;21116;-77
2021/10/04 02:53:31;;;;;;;2.23;2.10;;;17.30;99.90;;;;;;5047553;28;20484;-77
2021/10/04 02:55:58;;;;;;;2.57;2.37;;;17.20;99.90;;;;;;5047775;28;21066;-77
2021/10/04 02:58:25;;;;;;;2.87;2.20;;;17.20;99.90;;;;;;5046010;28;20448;-77
2021/10/04 03:00:51;;;;;;;2.23;2.13;;;17.20;99.90;;;;;;5046940;28;20555;-77
2021/10/04 03:03:19;;;;;;;2.10;2.00;;;17.20;99.90;;;;;;5046631;28;20528;-77
2021/10/04 03:05:45;;;;;;;2.13;1.70;;;17.10;99.90;;;;;;5046583;28;21040;-77
2021/10/04 03:08:12;;;;;;;2.07;1.87;;;17.20;99.90;;;;;;5045924;28;20563;-78
2021/10/04 03:10:39;;;;;;;2.03;1.93;;;17.20;99.90;;;;;;5047132;28;20540;-77
2021/10/04 03:13:06;;;;;;;2.23;2.13;;;17.20;99.90;;;;;;5047391;28;20547;-77
2021/10/04 03:15:33;;;;;;;1.77;1.67;;;17.20;99.90;;;;;;5046976;28;20488;-77
2021/10/04 03:17:59;;;;;;;2.00;1.80;;;17.20;99.90;;;;;;5047141;28;20532;-77
2021/10/04 03:20:27;;;;;;;1.50;1.30;;;17.20;99.90;;;;;;5047000;28;20535;-77
2021/10/04 03:22:54;;;;;;;1.67;1.57;;;17.20;99.90;;;;;;5046631;28;20535;-77
2021/10/04 03:25:21;;;;;;;2.00;1.90;;;17.10;99.90;;;;;;5045763;28;20536;-77
2021/10/04 03:27:48;;;;;;;1.87;1.27;;;17.10;99.90;;;;;;5047521;28;20479;-77
2021/10/04 03:30:15;;;;;;;1.60;1.37;;;17.00;99.90;;;;;;5047568;28;20483;-77
2021/10/04 03:32:43;;;;;;;1.30;1.20;;;16.90;99.90;;;;;;5046973;28;20530;-77
2021/10/04 03:35:10;;;;;;;1.40;1.30;;;16.90;99.90;;;;;;5047235;28;20540;-77
2021/10/04 03:37:38;;;;;;;1.30;1.20;;;16.90;99.90;;;;;;5046802;28;20475;-77
2021/10/04 03:40:06;;;;;;;1.93;1.20;;;16.90;99.90;;;;;;5046429;28;20880;-77
2021/10/04 03:42:33;;;;;;;1.20;1.10;;;16.90;99.90;;;;;;5045474;28;20563;-77
2021/10/04 03:44:59;;;;;;;1.40;1.30;;;16.90;99.90;;;;;;5045717;28;20472;-78
2021/10/04 03:47:26;;;;;;;2.10;1.20;;;16.80;99.90;;;;;;5046561;28;20531;-77
2021/10/04 03:49:52;;;;;;;1.43;1.33;;;16.80;99.90;;;;;;5047203;28;20681;-76
2021/10/04 03:52:19;;;;;;;2.03;1.43;;;16.80;99.90;;;;;;5046935;28;20452;-77
2021/10/04 03:54:47;;;;;;;1.40;0.80;;;16.80;99.90;;;;;;5047173;28;20480;-77
2021/10/04 03:57:13;;;;;;;1.30;1.20;;;16.80;99.90;;;;;;5046855;28;20536;-76
2021/10/04 03:59:40;;;;;;;1.00;0.90;;;16.70;99.90;;;;;;5046577;28;20495;-77
2021/10/04 04:02:06;;;;;;;1.63;1.53;;;16.60;99.90;;;;;;5047285;28;20507;-77
2021/10/04 04:04:33;;;;;;;1.10;1.00;;;16.50;99.90;;;;;;5045832;28;20444;-77
2021/10/04 04:06:59;;;;;;;2.33;1.33;;;16.40;99.90;;;;;;5046044;28;20535;-77
2021/10/04 04:09:26;;;;;;;1.00;0.90;;;16.30;99.90;;;;;;5040405;28;20499;-77
2021/10/04 04:11:54;;;;;;;1.10;0.93;;;16.30;99.90;;;;;;5050239;28;20487;-77
2021/10/04 04:14:22;;;;;;;1.43;1.10;;;16.30;99.90;;;;;;5050181;28;20563;-77
2021/10/04 04:16:48;;;;;;;1.33;1.00;;;16.30;99.90;;;;;;5050403;28;20456;-77
2021/10/04 04:19:15;;;;;;;1.40;1.00;;;16.30;99.90;;;;;;5050328;28;20535;-77
2021/10/04 04:21:42;;;;;;;1.20;1.10;;;16.30;99.90;;;;;;5050352;28;20588;-77
2021/10/04 04:24:09;;;;;;;1.13;0.90;;;16.20;99.90;;;;;;5048358;28;20452;-78
2021/10/04 04:26:35;;;;;;;1.60;1.00;;;16.20;99.90;;;;;;5050249;28;20494;-77
2021/10/04 04:29:04;;;;;;;1.20;1.10;;;16.30;99.90;;;;;;5049481;28;20575;-79
2021/10/04 04:31:31;;;;;;;1.30;1.20;;;16.30;99.90;;;;;;5050539;28;20491;-78
2021/10/04 04:33:57;;;;;;;1.37;1.00;;;16.30;99.90;;;;;;5050909;28;20549;-77
2021/10/04 04:36:24;;;;;;;1.60;1.03;;;16.30;99.90;;;;;;5050071;28;20480;-77
2021/10/04 04:38:50;;;;;;;1.40;1.20;;;16.30;99.90;;;;;;5049841;28;20483;-77
2021/10/04 04:41:18;;;;;;;1.40;1.00;;;16.20;99.90;;;;;;5049249;28;20503;-77
2021/10/04 04:43:45;;;;;;;1.20;1.10;;;16.20;99.90;;;;;;5048762;28;20456;-77
2021/10/04 04:46:12;;;;;;;1.90;1.00;;;16.20;99.90;;;;;;5049270;28;20531;-78
2021/10/04 04:48:39;;;;;;;1.07;0.97;;;16.20;99.90;;;;;;5049428;28;21154;-78
2021/10/04 04:51:05;;;;;;;1.37;1.23;;;16.20;99.90;;;;;;5049774;28;20489;-78
2021/10/04 04:53:32;;;;;;;1.20;1.10;;;16.20;99.90;;;;;;5049995;28;20460;-78
2021/10/04 04:55:59;;;;;;;3.67;1.10;;;16.20;99.90;;;;;;5049582;28;21034;-78
2021/10/04 04:58:25;;;;;;;1.20;1.10;;;16.20;99.90;;;;;;5045458;28;20543;-76
2021/10/04 05:00:52;;;;;;;1.20;1.10;;;16.30;99.90;;;;;;5047316;28;20449;-75
2021/10/04 05:03:20;;;;;;;2.00;0.90;;;16.20;99.90;;;;;;5046162;28;20484;-76
2021/10/04 05:05:46;;;;;;;1.10;0.80;;;16.20;99.90;;;;;;5047346;28;20874;-75
2021/10/04 05:08:13;;;;;;;2.10;0.80;;;16.20;99.90;;;;;;5048506;28;20472;-76
2021/10/04 05:10:40;;;;;;;0.90;0.90;;;16.30;99.90;;;;;;5048884;28;20988;-76
2021/10/04 05:13:07;;;;;;;1.03;0.70;;;16.20;99.90;;;;;;5049454;28;20455;-77
2021/10/04 05:15:35;;;;;;;0.90;0.80;;;16.20;99.90;;;;;;5048443;28;20502;-77
2021/10/04 05:18:01;;;;;;;1.20;0.87;;;16.20;99.90;;;;;;5048643;28;20563;-77
2021/10/04 05:20:29;;;;;;;0.73;0.70;;;16.20;99.90;;;;;;5048945;28;20545;-77
2021/10/04 05:22:56;;;;;;;0.67;0.63;;;16.20;99.90;;;;;;5048696;28;20484;-78
2021/10/04 05:25:22;;;;;;;0.70;0.70;;;16.20;99.90;;;;;;5046650;28;20531;-78
2021/10/04 05:27:49;;;;;;;1.63;0.67;;;16.20;99.90;;;;;;5048865;28;20522;-78
2021/10/04 05:30:15;;;;;;;1.00;0.90;;;16.20;99.90;;;;;;5040990;28;20606;-77
2021/10/04 05:32:42;;;;;;;1.60;1.50;;;16.10;99.90;;;;;;5049064;28;20535;-78
2021/10/04 05:35:11;;;;;;;1.70;0.83;;;16.10;99.90;;;;;;5048593;28;20543;-78
2021/10/04 05:37:39;;;;;;;1.10;0.90;;;16.10;99.90;;;;;;5048518;28;20460;-78
2021/10/04 05:40:07;;;;;;;0.90;0.80;;;16.10;99.90;;;;;;5048496;28;20491;-79
2021/10/04 05:42:34;;;;;;;1.00;0.73;;;16.20;99.90;;;;;;5048024;28;20921;-79
2021/10/04 05:45:01;;;;;;;1.10;1.00;;;16.10;99.90;;;;;;5046546;28;21058;-77
2021/10/04 05:47:28;;;;;;;1.47;0.93;;;16.10;99.90;;;;;;5047307;28;20542;-77
2021/10/04 05:49:55;;;;;;;1.53;0.70;;;16.10;99.90;;;;;;5048751;28;20578;-77
2021/10/04 05:52:21;;;;;;;1.23;0.70;;;16.10;99.90;;;;;;5048706;28;20547;-78
2021/10/04 05:54:49;;;;;;;1.17;0.73;;;16.20;99.90;;;;;;5048495;28;20539;-78
2021/10/04 05:57:16;;;;;;;0.97;0.87;;;16.10;99.90;;;;;;5048445;28;20872;-78
2021/10/04 05:59:43;;;;;;;0.97;0.87;;;16.10;99.90;;;;;;5047768;28;20457;-80
2021/10/04 06:02:09;;;;;;;1.20;1.00;;;16.10;99.90;;;;;;5042944;28;21019;-76
2021/10/04 06:04:36;;;;;;;1.57;0.90;;;16.20;99.90;;;;;;5047274;28;20526;-77
2021/10/04 06:07:03;;;;;;;1.03;0.93;;;16.20;99.90;;;;;;5047177;28;20536;-76
2021/10/04 06:09:29;;;;;;;0.80;0.80;;;16.20;99.90;;;;;;5047608;28;21226;-76
2021/10/04 06:11:57;;;;;;;2.50;1.13;;;16.20;99.90;;;;;;5047734;28;20976;-77
2021/10/04 06:14:24;;;;;;;2.10;0.90;;;16.20;99.90;;;;;;5048562;28;20523;-77
2021/10/04 06:16:52;;;;;;;0.80;0.70;;;16.20;99.90;;;;;;5048351;28;20479;-77
2021/10/04 06:19:19;;;;;;;3.03;0.90;;;16.20;99.90;;;;;;5047675;28;20449;-77
2021/10/04 06:21:46;;;;;;;1.10;1.00;;;16.20;99.90;;;;;;5048117;28;20539;-77
2021/10/04 06:24:12;;;;;;;3.47;1.20;;;16.20;99.90;;;;;;5046253;28;20543;-77
2021/10/04 06:26:39;;;;;;;1.03;0.90;;;16.30;99.90;;;;;;5046740;28;20535;-77
2021/10/04 06:29:07;;;;;;;1.63;1.10;;;16.30;99.90;;;;;;5047242;28;21022;-77
2021/10/04 06:31:33;;;;;;;1.40;0.80;;;16.40;99.90;;;;;;5046870;28;20914;-77
2021/10/04 06:34:00;;;;;;;1.67;1.17;;;16.40;99.90;;;;;;5047527;28;20506;-77
2021/10/04 06:36:26;;;;;;;1.60;0.87;;;16.40;99.90;;;;;;5047270;28;20890;-76
2021/10/04 06:38:53;;;;;;;1.63;0.90;;;16.40;99.90;;;;;;5047589;28;20563;-76
2021/10/04 06:41:20;;;;;;;2.80;1.10;;;16.40;99.90;;;;;;5046675;28;20888;-76
2021/10/04 06:43:46;;;;;;;2.57;1.37;;;16.40;99.90;;;;;;5047077;28;20492;-77
2021/10/04 06:46:14;;;;;;;1.73;0.90;;;16.40;99.90;;;;;;5045569;28;20491;-77
2021/10/04 06:48:41;;;;;;;2.07;1.47;;;16.50;99.90;;;;;;5047240;28;20506;-77
2021/10/04 06:51:08;;;;;;;3.27;2.63;;;16.50;99.90;;;;;;5046925;28;21001;-77
2021/10/04 06:53:35;;;;;;;8.73;2.80;;;16.50;99.90;;;;;;5047515;28;20834;-77
2021/10/04 06:56:01;;;;;;;6.80;3.33;;;16.50;99.90;;;;;;5048117;28;20484;-77
2021/10/04 06:58:28;;;;;;;2.23;2.10;;;16.60;99.90;;;;;;5047433;28;20607;-77
2021/10/04 07:00:55;;;;;;;3.90;1.17;;;16.50;99.90;;;;;;5047382;28;20541;-78
2021/10/04 07:03:22;;;;;;;2.60;1.20;;;16.60;99.90;;;;;;5046733;28;20539;-77
2021/10/04 07:05:51;;;;;;;1.37;1.10;;;16.60;99.90;;;;;;5045400;28;20543;-77
2021/10/04 07:08:18;;;;;;;2.03;1.10;;;16.60;99.90;;;;;;5046207;28;20436;-76
2021/10/04 07:10:44;;;;;;;3.80;1.03;;;16.70;99.90;;;;;;5046992;28;20593;-77
2021/10/04 07:13:11;;;;;;;1.37;1.00;;;16.70;99.90;;;;;;5046264;28;20488;-76
2021/10/04 07:15:38;;;;;;;0.93;0.90;;;16.70;99.90;;;;;;5047376;28;20535;-77
2021/10/04 07:18:04;;;;;;;1.40;1.30;;;16.70;99.90;;;;;;5047223;28;20476;-77
2021/10/04 07:20:32;;;;;;;1.00;0.90;;;16.80;99.90;;;;;;5047864;28;20864;-76
2021/10/04 07:22:59;;;;;;;2.93;1.10;;;16.90;99.90;;;;;;5047380;28;20907;-76
2021/10/04 07:25:26;;;;;;;3.20;1.00;;;17.00;99.90;;;;;;5045720;28;20479;-76
2021/10/04 07:27:52;;;;;;;2.33;1.07;;;17.00;99.90;;;;;;5046753;28;20889;-76
2021/10/04 07:30:19;;;;;;;1.37;1.20;;;17.10;99.90;;;;;;5046909;28;20580;-76
2021/10/04 07:32:46;;;;;;;1.70;1.60;;;17.10;99.90;;;;;;5046879;28;20484;-77
2021/10/04 07:35:13;;;;;;;9.00;7.83;;;17.10;99.90;;;;;;5046987;28;20484;-77
2021/10/04 07:37:41;;;;;;;5.63;2.60;;;17.10;99.90;;;;;;5047228;28;20444;-77
2021/10/04 07:40:10;;;;;;;3.30;1.77;;;17.10;99.90;;;;;;5047413;28;20910;-77
2021/10/04 07:42:37;;;;;;;3.60;1.23;;;17.10;99.90;;;;;;5046688;28;20555;-77
2021/10/04 07:45:04;;;;;;;1.20;1.10;;;17.10;99.90;;;;;;5048318;28;20479;-78
2021/10/04 07:47:30;;;;;;;3.07;2.77;;;17.10;99.90;;;;;;5050509;28;20973;-77
2021/10/04 07:49:57;;;;;;;4.00;3.67;;;17.10;99.90;;;;;;5043107;28;20584;-77
2021/10/04 07:52:23;;;;;;;4.87;3.87;;;17.10;99.90;;;;;;5051304;28;20539;-76
2021/10/04 07:54:51;;;;;;;2.03;1.83;;;17.00;99.90;;;;;;5050996;28;20445;-78
2021/10/04 07:57:18;;;;;;;1.60;1.50;;;17.00;99.90;;;;;;5050620;28;20448;-77
2021/10/04 07:59:45;;;;;;;1.47;1.20;;;17.00;99.90;;;;;;5050575;28;20476;-78
2021/10/04 08:02:11;;;;;;;3.00;1.80;;;17.00;99.90;;;;;;5050824;28;20504;-79
2021/10/04 08:04:39;;;;;;;2.20;1.50;;;17.00;99.90;;;;;;5050341;28;20475;-77
2021/10/04 08:07:06;;;;;;;4.33;1.10;;;17.00;99.90;;;;;;5050957;28;20476;-79
2021/10/04 08:09:33;;;;;;;1.10;1.00;;;17.00;99.90;;;;;;5050564;28;20594;-77
2021/10/04 08:12:01;;;;;;;4.93;1.30;;;17.00;99.90;;;;;;5051087;28;20479;-77
2021/10/04 08:14:28;;;;;;;1.40;1.03;;;17.10;99.90;;;;;;5050562;28;20518;-77
2021/10/04 08:16:54;;;;;;;1.07;0.97;;;17.20;99.90;;;;;;5050470;28;20502;-77
2021/10/04 08:19:21;;;;;;;1.10;0.90;;;17.30;99.90;;;;;;5050224;28;20535;-77
2021/10/04 08:21:48;;;;;;;1.97;1.23;;;17.40;99.90;;;;;;5050275;28;20539;-77
2021/10/04 08:24:14;;;;;;;1.00;0.90;;;17.40;99.90;;;;;;5050103;28;20944;-77
2021/10/04 08:26:41;;;;;;;1.60;1.10;;;17.40;99.90;;;;;;5045098;28;20547;-77
2021/10/04 08:29:09;;;;;;;1.73;1.23;;;17.40;99.90;;;;;;5051951;28;20551;-77
2021/10/04 08:31:36;;;;;;;1.60;1.03;;;17.30;99.90;;;;;;5050804;28;20480;-77
2021/10/04 08:34:05;;;;;;;1.50;0.90;;;17.30;99.90;;;;;;5054901;28;20536;-77
2021/10/04 08:36:32;;;;;;;3.23;1.23;;;17.40;99.90;;;;;;5054804;28;20440;-77
2021/10/04 08:38:59;;;;;;;1.40;1.30;;;17.40;99.90;;;;;;5055246;28;20440;-77
2021/10/04 08:41:26;;;;;;;1.40;1.20;;;17.40;99.90;;;;;;5054044;28;20555;-77
2021/10/04 08:43:55;;;;;;;2.67;1.40;;;17.40;99.90;;;;;;5054635;28;20501;-77
2021/10/04 08:46:23;;;;;;;1.80;1.10;;;17.30;99.90;;;;;;5054740;28;20481;-77
2021/10/04 08:48:50;;;;;;;2.00;1.90;;;17.40;99.90;;;;;;5054692;28;20440;-77
2021/10/04 08:51:17;;;;;;;1.23;1.00;;;17.40;99.90;;;;;;5054622;28;20508;-77
2021/10/04 08:53:45;;;;;;;0.80;0.80;;;17.40;99.90;;;;;;5054600;28;20488;-77
2021/10/04 08:56:12;;;;;;;1.20;1.00;;;17.40;99.90;;;;;;5053034;28;20448;-78
2021/10/04 08:58:38;;;;;;;1.37;1.13;;;17.40;99.90;;;;;;5054456;28;20539;-77
2021/10/04 09:01:05;;;;;;;1.50;0.90;;;17.40;99.90;;;;;;5054830;28;20460;-77
2021/10/04 09:03:45;;;;;;;3.57;1.50;;;17.30;99.90;;;;;;5049789;28;20543;-78
2021/10/04 09:06:25;;;;;;;3.07;1.63;;;17.30;99.90;;;;;;5053917;28;20467;-77
2021/10/04 09:08:52;;;;;;;3.60;1.47;;;17.30;99.90;;;;;;5054469;28;20539;-78
2021/10/04 09:11:33;;;;;;;1.77;1.67;;;17.40;99.90;;;;;;5052596;28;20583;-77
2021/10/04 09:14:05;;;;;;;4.80;2.10;;;17.50;99.90;;;;;;5052703;28;20970;-77
2021/10/04 09:16:54;;;;;;;6.97;2.37;;;17.60;99.90;;;;;;5054387;28;20476;-77
2021/10/04 09:19:24;;;;;;;4.23;2.00;;;17.60;99.90;;;;;;5053974;28;20489;-78
2021/10/04 09:22:12;;;;;;;3.60;1.60;;;17.70;99.90;;;;;;5054525;28;20476;-77
2021/10/04 09:24:41;;;;;;;2.63;2.20;;;17.80;99.90;;;;;;5045909;28;20476;-77
2021/10/04 09:27:30;;;;;;;4.00;1.87;;;17.90;99.90;;;;;;5053894;28;20540;-77
2021/10/04 09:29:57;;;;;;;2.67;1.77;;;18.10;99.90;;;;;;5050017;28;20476;-77
2021/10/04 09:32:25;;;;;;;5.83;1.83;;;18.20;99.90;;;;;;5053887;28;20484;-77
2021/10/04 09:35:21;;;;;;;5.10;2.87;;;18.20;99.90;;;;;;5053753;28;20966;-77
2021/10/04 09:37:49;;;;;;;3.60;3.30;;;18.20;99.90;;;;;;5039226;28;20444;-78
2021/10/04 09:40:31;;;;;;;5.07;1.97;;;18.20;99.90;;;;;;5053587;28;20539;-77
2021/10/04 09:42:58;;;;;;;3.60;2.10;;;18.10;99.90;;;;;;5053596;28;20896;-77
2021/10/04 09:45:26;;;;;;;1.87;1.67;;;18.10;99.90;;;;;;5053544;28;20476;-78
2021/10/04 09:47:54;;;;;;;2.90;1.60;;;18.00;99.90;;;;;;5053736;28;20543;-77
2021/10/04 09:50:28;;;;;;;4.37;1.87;;;18.00;99.90;;;;;;5053667;28;20836;-77
2021/10/04 09:52:56;;;;;;;1.30;1.20;;;18.00;99.90;;;;;;5053848;28;20979;-77
2021/10/04 09:55:26;;;;;;;2.13;1.77;;;18.00;99.90;;;;;;5052962;28;20539;-77
2021/10/04 09:57:55;;;;;;;2.90;1.83;;;18.00;99.90;;;;;;5050350;28;20444;-77
2021/10/04 10:00:22;;;;;;;2.60;1.30;;;17.90;99.90;;;;;;5053378;28;20445;-77
2021/10/04 10:02:54;;;;;;;3.47;1.43;;;17.80;99.90;;;;;;5053432;28;20522;-77
2021/10/04 10:05:22;;;;;;;11.60;2.37;;;17.90;99.90;;;;;;5053448;28;20531;-77
2021/10/04 10:07:50;;;;;;;3.50;1.30;;;17.90;99.90;;;;;;5052535;28;20445;-77
2021/10/04 10:10:18;;;;;;;6.53;1.60;;;17.90;99.90;;;;;;5053284;28;20572;-77
2021/10/04 10:12:45;;;;;;;1.70;1.30;;;18.00;99.90;;;;;;5053592;28;20483;-78
2021/10/04 10:15:17;;;;;;;4.63;1.83;;;18.00;99.90;;;;;;5053283;28;20530;-77
2021/10/04 10:17:48;;;;;;;5.40;1.40;;;17.90;99.90;;;;;;5053413;28;20471;-77
2021/10/04 10:20:20;;;;;;;2.20;0.90;;;18.10;99.90;;;;;;5053303;28;20501;-77
2021/10/04 10:22:49;;;;;;;3.00;1.27;;;18.20;99.90;;;;;;5053292;28;20540;-77
2021/10/04 10:25:39;;;;;;;1.30;1.10;;;18.40;99.90;;;;;;5048326;28;20449;-77
2021/10/04 10:28:26;;;;;;;1.13;0.97;;;18.60;99.90;;;;;;5052827;28;20812;-77
2021/10/04 10:30:54;;;;;;;1.93;1.30;;;18.70;99.90;;;;;;5052279;28;20571;-77
2021/10/04 10:33:45;;;;;;;1.40;1.00;;;18.70;99.90;;;;;;5052348;28;20476;-77
2021/10/04 10:36:13;;;;;;;1.10;1.00;;;18.80;99.90;;;;;;5052682;28;20445;-78
2021/10/04 10:39:00;;;;;;;3.30;2.10;;;18.90;99.90;;;;;;5052513;28;20883;-77
2021/10/04 10:41:29;;;;;;;1.93;1.27;;;19.00;99.90;;;;;;5051737;28;20513;-77
2021/10/04 10:44:07;;;;;;;3.10;1.83;;;19.10;99.90;;;;;;5052334;28;20441;-77
2021/10/04 10:46:46;;;;;;;5.33;1.33;;;19.20;99.90;;;;;;5052223;28;20486;-77
2021/10/04 10:49:13;;;;;;;1.87;1.57;;;19.10;99.90;;;;;;5052340;28;20448;-77
2021/10/04 10:52:13;;;;;;;1.70;1.33;;;19.10;99.90;;;;;;5036599;28;20479;-77
2021/10/04 10:54:40;;;;;;;4.47;2.40;;;19.00;99.90;;;;;;5051965;28;20469;-77
2021/10/04 10:57:08;;;;;;;4.47;4.07;;;19.00;99.90;;;;;;5052279;28;20480;-77
2021/10/04 10:59:34;;;;;;;6.60;5.00;;;19.00;99.90;;;;;;5052117;28;20944;-77
2021/10/04 11:02:01;;;;;;;1.77;1.60;;;19.00;99.90;;;;;;5052245;28;20823;-77
2021/10/04 11:04:39;;;;;;;4.63;1.80;;;19.00;99.90;;;;;;5052207;28;20939;-78
2021/10/04 11:07:06;;;;;;;5.00;1.00;;;19.00;99.90;;;;;;5052083;28;20924;-77
2021/10/04 11:10:06;;;;;;;3.07;1.20;;;18.90;99.90;;;;;;5052294;28;20535;-78
2021/10/04 11:13:03;;;;;;;4.07;1.37;;;19.00;99.90;;;;;;5052145;28;20539;-78
2021/10/04 11:15:30;;;;;;;3.37;1.50;;;19.10;99.90;;;;;;5051323;28;20547;-77
2021/10/04 11:17:57;;;;;;;1.93;1.37;;;19.00;99.90;;;;;;5052155;28;20471;-77
2021/10/04 11:20:24;;;;;;;1.33;1.20;;;18.90;99.90;;;;;;5051170;28;20483;-77
2021/10/04 11:22:50;;;;;;;2.07;1.20;;;18.90;99.90;;;;;;5051957;28;20484;-77
2021/10/04 11:25:17;;;;;;;2.80;1.63;;;18.90;99.90;;;;;;5051667;28;20977;-77
2021/10/04 11:27:48;;;;;;;8.30;1.30;;;18.80;99.90;;;;;;5051783;28;20894;-77
2021/10/04 11:30:15;;;;;;;2.97;1.33;;;18.80;99.90;;;;;;5051739;28;20570;-77
2021/10/04 11:33:08;;;;;;;8.20;1.70;;;18.80;99.90;;;;;;5051882;28;20480;-77
2021/10/04 11:35:35;;;;;;;5.37;2.13;;;18.80;99.90;;;;;;5051755;28;20452;-77
2021/10/04 11:38:06;;;;;;;3.47;1.00;;;18.80;99.90;;;;;;5051710;28;20495;-77
2021/10/04 11:40:33;;;;;;;1.60;1.50;;;18.80;99.90;;;;;;5051512;28;21023;-77
2021/10/04 11:43:02;;;;;;;3.50;1.80;;;18.80;99.90;;;;;;5051940;28;20487;-77
2021/10/04 11:45:29;;;;;;;3.50;1.90;;;18.70;99.90;;;;;;5051978;28;20535;-77
2021/10/04 11:47:55;;;;;;;3.90;1.47;;;18.60;99.90;;;;;;5051781;28;20487;-77
2021/10/04 11:50:25;;;;;;;2.43;1.33;;;18.60;99.90;;;;;;5051542;28;20496;-77
2021/10/04 11:52:53;;;;;;;3.80;1.30;;;18.60;99.90;;;;;;5051565;28;20575;-77
2021/10/04 11:55:20;;;;;;;3.00;1.37;;;18.60;99.90;;;;;;5051465;28;20955;-77
2021/10/04 11:57:48;;;;;;;2.70;2.00;;;18.70;99.90;;;;;;5051698;28;20481;-77
2021/10/04 12:00:16;;;;;;;6.17;1.50;;;18.90;99.90;;;;;;5051648;28;20495;-77
2021/10/04 12:02:45;;;;;;;4.23;1.93;;;19.00;99.90;;;;;;5051198;28;21030;-77
2021/10/04 12:05:15;;;;;;;4.17;1.67;;;19.10;99.90;;;;;;5051503;28;20448;-77
2021/10/04 12:08:00;;;;;;;1.80;1.70;;;19.10;99.90;;;;;;5051535;28;20472;-78
2021/10/04 12:10:42;;;;;;;4.10;1.53;;;19.20;99.90;;;;;;5051276;28;20475;-77
2021/10/04 12:13:10;;;;;;;6.87;1.83;;;19.20;99.90;;;;;;5051458;28;21026;-77
2021/10/04 12:15:36;;;;;;;4.67;1.37;;;19.20;99.90;;;;;;5051084;28;20543;-77
2021/10/04 12:18:03;;;;;;;4.30;1.47;;;19.20;99.90;;;;;;5051671;28;21050;-76
2021/10/04 12:20:30;;;;;;;3.10;1.00;;;19.10;99.90;;;;;;5051649;28;20510;-76
2021/10/04 12:22:56;;;;;;;3.57;1.47;;;19.00;99.90;;;;;;5051514;28;20476;-77
2021/10/04 12:25:30;;;;;;;2.40;1.27;;;18.90;99.90;;;;;;5051258;28;20502;-77
2021/10/04 12:28:01;;;;;;;2.67;1.30;;;18.90;99.90;;;;;;5051281;28;20892;-76
2021/10/04 12:30:41;;;;;;;14.60;11.00;;;18.90;99.90;;;;;;5047487;28;20528;-77
2021/10/04 12:33:08;;;;;;;6.63;2.50;;;18.80;99.90;;;;;;5051199;28;20479;-76
2021/10/04 12:35:35;;;;;;;2.37;1.97;;;18.70;99.90;;;;;;5054919;28;20489;-76
2021/10/04 12:38:03;;;;;;;3.23;2.10;;;18.60;99.90;;;;;;5054746;28;20479;-77
2021/10/04 12:40:39;;;;;;;1.57;1.40;;;18.50;99.90;;;;;;5054492;28;20518;-77
2021/10/04 12:43:07;;;;;;;3.93;3.53;;;18.50;99.90;;;;;;5054762;28;20440;-77
2021/10/04 12:45:36;;;;;;;5.03;1.50;;;18.30;99.90;;;;;;5054718;28;20448;-77
2021/10/04 12:48:06;;;;;;;3.10;1.50;;;18.20;99.90;;;;;;5054830;28;20477;-77
2021/10/04 12:50:35;;;;;;;2.17;1.60;;;18.10;99.90;;;;;;5054566;28;20479;-77